メインページ
METAR-TAF:

METAR-TAF

空港 :

ジョージ・ベスト・ベルファスト・シティ空港

ベルファスト, 北アイルランド

緯度: 54-36N, 経度: 005-53W, 海抜: 5m

現時点の気象観測

当レポートは14分前の20:50(UTC)に作成
の風 6kt
気温 17°C
湿度 82%
気圧 1015 hPa
視程10km以上

METAR: EGAC 212050Z AUTO 19006KT 9999 BKN020/// 17/14 Q1015

時間: 22:04 (21:04 UTC)

予報

当レポートは4時間8分前の16:56(UTC)に作成
予報は21日の 18時(UTC)から 21日の 21時(UTC)まで有効
西の風 5kt
視程10km以上
高度1000ftの雲はほとんどない
高度2000ftの千切れ雲あり

TAF: EGAC 211656Z 2118/2121 27005KT 9999 FEW010 BKN020

4,000以上の空港の気象観測と天気予報(METAR報とTAF報)

利用可能な観測所は地図上に黄色い丸と赤い丸で示す。

丸の上にカーソルを重ねると観測所名を参照できる。

次にクリックすると気象観測と天気予報を参照できる。

マップの切り替え:黒色「×」印の緑ボタンをクリックして拡大、「-」印の緑ボタンをクリックして縮小、緑色の三角印をクリックして隣りの地図に切り替え


METAR-TAF: